sensor_id;sensor_type;location;lat;lon;timestamp;temperature;humidity
64961;SHT31;51487;52.266;10.542;2023-04-08T00:00:03;6.09;90.88
64961;SHT31;51487;52.266;10.542;2023-04-08T00:02:30;6.08;91.34
64961;SHT31;51487;52.266;10.542;2023-04-08T00:04:56;6.01;91.69
64961;SHT31;51487;52.266;10.542;2023-04-08T00:07:21;6.05;91.35
64961;SHT31;51487;52.266;10.542;2023-04-08T00:09:47;5.97;91.75
64961;SHT31;51487;52.266;10.542;2023-04-08T00:12:12;5.97;91.87
64961;SHT31;51487;52.266;10.542;2023-04-08T00:14:37;5.98;91.95
64961;SHT31;51487;52.266;10.542;2023-04-08T00:17:05;5.91;92.35
64961;SHT31;51487;52.266;10.542;2023-04-08T00:19:30;5.91;92.01
64961;SHT31;51487;52.266;10.542;2023-04-08T00:21:55;5.97;92.36
64961;SHT31;51487;52.266;10.542;2023-04-08T00:24:21;5.87;92.75
64961;SHT31;51487;52.266;10.542;2023-04-08T00:26:46;5.97;92.83
64961;SHT31;51487;52.266;10.542;2023-04-08T00:29:11;6.03;92.68
64961;SHT31;51487;52.266;10.542;2023-04-08T00:31:37;6.05;92.61
64961;SHT31;51487;52.266;10.542;2023-04-08T00:34:02;5.97;93.03
64961;SHT31;51487;52.266;10.542;2023-04-08T00:36:27;5.91;93.35
64961;SHT31;51487;52.266;10.542;2023-04-08T00:38:53;5.95;92.88
64961;SHT31;51487;52.266;10.542;2023-04-08T00:41:19;5.94;92.93
64961;SHT31;51487;52.266;10.542;2023-04-08T00:43:44;5.91;93.15
64961;SHT31;51487;52.266;10.542;2023-04-08T00:46:10;5.87;93.45
64961;SHT31;51487;52.266;10.542;2023-04-08T00:48:35;5.99;93.32
64961;SHT31;51487;52.266;10.542;2023-04-08T00:51:01;5.88;93.47
64961;SHT31;51487;52.266;10.542;2023-04-08T00:53:29;5.84;93.65
64961;SHT31;51487;52.266;10.542;2023-04-08T00:55:55;5.89;93.53
64961;SHT31;51487;52.266;10.542;2023-04-08T00:58:20;5.70;93.94
64961;SHT31;51487;52.266;10.542;2023-04-08T01:00:54;5.71;93.80
64961;SHT31;51487;52.266;10.542;2023-04-08T01:03:56;5.74;94.00
64961;SHT31;51487;52.266;10.542;2023-04-08T01:06:25;5.94;93.43
64961;SHT31;51487;52.266;10.542;2023-04-08T01:08:53;5.91;93.59
64961;SHT31;51487;52.266;10.542;2023-04-08T01:11:21;5.85;93.42
64961;SHT31;51487;52.266;10.542;2023-04-08T01:13:47;5.89;93.02
64961;SHT31;51487;52.266;10.542;2023-04-08T01:16:15;5.87;93.34
64961;SHT31;51487;52.266;10.542;2023-04-08T01:18:43;5.84;93.71
64961;SHT31;51487;52.266;10.542;2023-04-08T01:21:11;5.89;93.42
64961;SHT31;51487;52.266;10.542;2023-04-08T01:26:12;5.74;93.37
64961;SHT31;51487;52.266;10.542;2023-04-08T01:28:46;5.67;94.28
64961;SHT31;51487;52.266;10.542;2023-04-08T01:31:13;5.77;94.08
64961;SHT31;51487;52.266;10.542;2023-04-08T01:33:40;5.87;93.92
64961;SHT31;51487;52.266;10.542;2023-04-08T01:36:05;5.95;93.47
64961;SHT31;51487;52.266;10.542;2023-04-08T01:38:32;5.89;93.33
64961;SHT31;51487;52.266;10.542;2023-04-08T01:40:58;5.94;93.05
64961;SHT31;51487;52.266;10.542;2023-04-08T01:43:25;5.68;94.19
64961;SHT31;51487;52.266;10.542;2023-04-08T01:45:51;5.75;93.69
64961;SHT31;51487;52.266;10.542;2023-04-08T01:48:23;5.74;93.79
64961;SHT31;51487;52.266;10.542;2023-04-08T01:50:48;5.81;93.84
64961;SHT31;51487;52.266;10.542;2023-04-08T01:53:15;5.82;93.77
64961;SHT31;51487;52.266;10.542;2023-04-08T01:55:41;5.81;93.61
64961;SHT31;51487;52.266;10.542;2023-04-08T01:58:10;5.75;94.01
64961;SHT31;51487;52.266;10.542;2023-04-08T02:00:38;5.74;94.55
64961;SHT31;51487;52.266;10.542;2023-04-08T02:03:05;5.89;94.12
64961;SHT31;51487;52.266;10.542;2023-04-08T02:05:31;5.85;94.23
64961;SHT31;51487;52.266;10.542;2023-04-08T02:07:56;5.85;94.42
64961;SHT31;51487;52.266;10.542;2023-04-08T02:10:22;5.91;94.39
64961;SHT31;51487;52.266;10.542;2023-04-08T02:12:47;5.97;94.39
64961;SHT31;51487;52.266;10.542;2023-04-08T02:15:13;5.95;94.36
64961;SHT31;51487;52.266;10.542;2023-04-08T02:17:46;5.75;95.15
64961;SHT31;51487;52.266;10.542;2023-04-08T02:20:18;5.91;94.89
64961;SHT31;51487;52.266;10.542;2023-04-08T02:22:48;5.82;94.75
64961;SHT31;51487;52.266;10.542;2023-04-08T02:25:16;5.88;94.81
64961;SHT31;51487;52.266;10.542;2023-04-08T02:27:43;5.87;94.52
64961;SHT31;51487;52.266;10.542;2023-04-08T02:30:11;5.88;94.79
64961;SHT31;51487;52.266;10.542;2023-04-08T02:32:37;5.81;94.77
64961;SHT31;51487;52.266;10.542;2023-04-08T02:35:04;5.82;95.15
64961;SHT31;51487;52.266;10.542;2023-04-08T02:37:30;5.89;94.69
64961;SHT31;51487;52.266;10.542;2023-04-08T02:39:56;5.97;94.34
64961;SHT31;51487;52.266;10.542;2023-04-08T02:42:21;5.91;94.57
64961;SHT31;51487;52.266;10.542;2023-04-08T02:44:47;5.74;95.03
64961;SHT31;51487;52.266;10.542;2023-04-08T02:47:12;5.79;95.58
64961;SHT31;51487;52.266;10.542;2023-04-08T02:49:37;5.87;95.28
64961;SHT31;51487;52.266;10.542;2023-04-08T02:52:03;5.92;95.14
64961;SHT31;51487;52.266;10.542;2023-04-08T02:54:29;5.71;95.72
64961;SHT31;51487;52.266;10.542;2023-04-08T02:56:54;5.74;95.63
64961;SHT31;51487;52.266;10.542;2023-04-08T02:59:20;5.68;95.72
64961;SHT31;51487;52.266;10.542;2023-04-08T03:01:45;5.67;95.73
64961;SHT31;51487;52.266;10.542;2023-04-08T03:04:10;5.67;96.08
64961;SHT31;51487;52.266;10.542;2023-04-08T03:06:36;5.70;95.73
64961;SHT31;51487;52.266;10.542;2023-04-08T03:09:01;5.77;95.59
64961;SHT31;51487;52.266;10.542;2023-04-08T03:11:27;5.84;95.43
64961;SHT31;51487;52.266;10.542;2023-04-08T03:13:52;5.74;95.67
64961;SHT31;51487;52.266;10.542;2023-04-08T03:16:17;5.84;95.44
64961;SHT31;51487;52.266;10.542;2023-04-08T03:18:43;5.85;95.10
64961;SHT31;51487;52.266;10.542;2023-04-08T03:21:08;5.88;94.88
64961;SHT31;51487;52.266;10.542;2023-04-08T03:23:34;5.82;95.16
64961;SHT31;51487;52.266;10.542;2023-04-08T03:25:59;5.78;94.98
64961;SHT31;51487;52.266;10.542;2023-04-08T03:28:24;5.75;94.86
64961;SHT31;51487;52.266;10.542;2023-04-08T03:30:50;5.62;95.79
64961;SHT31;51487;52.266;10.542;2023-04-08T03:33:15;5.67;95.53
64961;SHT31;51487;52.266;10.542;2023-04-08T03:35:41;5.62;95.84
64961;SHT31;51487;52.266;10.542;2023-04-08T03:38:06;5.61;95.85
64961;SHT31;51487;52.266;10.542;2023-04-08T03:40:31;5.79;95.43
64961;SHT31;51487;52.266;10.542;2023-04-08T03:42:57;5.71;95.45
64961;SHT31;51487;52.266;10.542;2023-04-08T03:45:22;5.72;95.36
64961;SHT31;51487;52.266;10.542;2023-04-08T03:47:48;5.81;95.20
64961;SHT31;51487;52.266;10.542;2023-04-08T03:50:13;5.77;95.52
64961;SHT31;51487;52.266;10.542;2023-04-08T03:52:38;5.81;95.10
64961;SHT31;51487;52.266;10.542;2023-04-08T03:55:04;5.78;95.14
64961;SHT31;51487;52.266;10.542;2023-04-08T03:57:29;5.78;95.04
64961;SHT31;51487;52.266;10.542;2023-04-08T03:59:55;5.61;95.85
64961;SHT31;51487;52.266;10.542;2023-04-08T04:02:20;5.70;95.42
64961;SHT31;51487;52.266;10.542;2023-04-08T04:04:46;5.75;95.44
64961;SHT31;51487;52.266;10.542;2023-04-08T04:07:11;5.71;95.52
64961;SHT31;51487;52.266;10.542;2023-04-08T04:09:36;5.71;95.57
64961;SHT31;51487;52.266;10.542;2023-04-08T04:12:02;5.77;95.17
64961;SHT31;51487;52.266;10.542;2023-04-08T04:14:27;5.72;95.19
64961;SHT31;51487;52.266;10.542;2023-04-08T04:16:53;5.77;94.97
64961;SHT31;51487;52.266;10.542;2023-04-08T04:19:18;5.81;95.08
64961;SHT31;51487;52.266;10.542;2023-04-08T04:21:43;5.82;94.96
64961;SHT31;51487;52.266;10.542;2023-04-08T04:24:09;5.95;94.67
64961;SHT31;51487;52.266;10.542;2023-04-08T04:26:34;5.82;94.71
64961;SHT31;51487;52.266;10.542;2023-04-08T04:29:00;5.89;94.92
64961;SHT31;51487;52.266;10.542;2023-04-08T04:31:25;5.87;94.67
64961;SHT31;51487;52.266;10.542;2023-04-08T04:33:51;5.77;95.39
64961;SHT31;51487;52.266;10.542;2023-04-08T04:36:16;5.84;94.86
64961;SHT31;51487;52.266;10.542;2023-04-08T04:38:42;5.95;94.70
64961;SHT31;51487;52.266;10.542;2023-04-08T04:41:08;6.05;94.52
64961;SHT31;51487;52.266;10.542;2023-04-08T04:43:34;6.05;94.39
64961;SHT31;51487;52.266;10.542;2023-04-08T04:45:59;6.01;94.63
64961;SHT31;51487;52.266;10.542;2023-04-08T04:48:25;6.03;94.44
64961;SHT31;51487;52.266;10.542;2023-04-08T04:50:57;6.09;94.21
64961;SHT31;51487;52.266;10.542;2023-04-08T04:53:23;6.10;93.92
64961;SHT31;51487;52.266;10.542;2023-04-08T04:55:49;6.16;94.06
64961;SHT31;51487;52.266;10.542;2023-04-08T04:58:15;6.16;93.99
64961;SHT31;51487;52.266;10.542;2023-04-08T05:00:40;6.23;93.98
64961;SHT31;51487;52.266;10.542;2023-04-08T05:03:06;6.19;93.93
64961;SHT31;51487;52.266;10.542;2023-04-08T05:05:31;6.20;93.80
64961;SHT31;51487;52.266;10.542;2023-04-08T05:07:56;6.23;93.96
64961;SHT31;51487;52.266;10.542;2023-04-08T05:10:22;6.20;93.90
64961;SHT31;51487;52.266;10.542;2023-04-08T05:12:47;6.23;94.26
64961;SHT31;51487;52.266;10.542;2023-04-08T05:15:13;6.26;94.09
64961;SHT31;51487;52.266;10.542;2023-04-08T05:17:38;6.25;93.91
64961;SHT31;51487;52.266;10.542;2023-04-08T05:20:04;6.30;93.80
64961;SHT31;51487;52.266;10.542;2023-04-08T05:22:29;6.20;94.21
64961;SHT31;51487;52.266;10.542;2023-04-08T05:24:55;6.28;94.11
64961;SHT31;51487;52.266;10.542;2023-04-08T05:27:20;6.16;94.65
64961;SHT31;51487;52.266;10.542;2023-04-08T05:29:46;6.25;94.69
64961;SHT31;51487;52.266;10.542;2023-04-08T05:32:11;6.18;94.45
64961;SHT31;51487;52.266;10.542;2023-04-08T05:34:36;6.15;94.79
64961;SHT31;51487;52.266;10.542;2023-04-08T05:37:02;6.09;95.10
64961;SHT31;51487;52.266;10.542;2023-04-08T05:39:27;6.12;95.03
64961;SHT31;51487;52.266;10.542;2023-04-08T05:41:53;6.09;95.44
64961;SHT31;51487;52.266;10.542;2023-04-08T05:44:18;6.12;95.24
64961;SHT31;51487;52.266;10.542;2023-04-08T05:46:44;6.02;95.60
64961;SHT31;51487;52.266;10.542;2023-04-08T05:49:10;6.01;95.82
64961;SHT31;51487;52.266;10.542;2023-04-08T05:51:36;5.85;96.19
64961;SHT31;51487;52.266;10.542;2023-04-08T05:54:02;6.06;95.95
64961;SHT31;51487;52.266;10.542;2023-04-08T05:56:27;5.99;95.89
64961;SHT31;51487;52.266;10.542;2023-04-08T05:58:52;5.92;95.86
64961;SHT31;51487;52.266;10.542;2023-04-08T06:01:18;5.98;95.93
64961;SHT31;51487;52.266;10.542;2023-04-08T06:03:43;5.99;96.01
64961;SHT31;51487;52.266;10.542;2023-04-08T06:06:09;6.06;95.89
64961;SHT31;51487;52.266;10.542;2023-04-08T06:08:38;6.05;95.96
64961;SHT31;51487;52.266;10.542;2023-04-08T06:11:04;6.08;95.81
64961;SHT31;51487;52.266;10.542;2023-04-08T06:13:30;5.98;95.89
64961;SHT31;51487;52.266;10.542;2023-04-08T06:15:56;5.88;96.34
64961;SHT31;51487;52.266;10.542;2023-04-08T06:18:22;5.78;96.70
64961;SHT31;51487;52.266;10.542;2023-04-08T06:20:47;5.81;97.17
64961;SHT31;51487;52.266;10.542;2023-04-08T06:23:12;5.68;97.61
64961;SHT31;51487;52.266;10.542;2023-04-08T06:25:38;5.81;97.63
64961;SHT31;51487;52.266;10.542;2023-04-08T06:28:03;5.91;97.32
64961;SHT31;51487;52.266;10.542;2023-04-08T06:30:29;5.97;97.07
64961;SHT31;51487;52.266;10.542;2023-04-08T06:32:54;5.99;96.49
64961;SHT31;51487;52.266;10.542;2023-04-08T06:35:19;6.01;96.62
64961;SHT31;51487;52.266;10.542;2023-04-08T06:37:45;6.01;96.45
64961;SHT31;51487;52.266;10.542;2023-04-08T06:40:10;6.10;96.55
64961;SHT31;51487;52.266;10.542;2023-04-08T06:42:36;6.15;96.50
64961;SHT31;51487;52.266;10.542;2023-04-08T06:45:03;6.12;96.41
64961;SHT31;51487;52.266;10.542;2023-04-08T06:47:28;6.22;95.98
64961;SHT31;51487;52.266;10.542;2023-04-08T06:49:54;6.13;96.25
64961;SHT31;51487;52.266;10.542;2023-04-08T06:52:20;6.19;96.40
64961;SHT31;51487;52.266;10.542;2023-04-08T06:54:45;6.19;95.82
64961;SHT31;51487;52.266;10.542;2023-04-08T06:57:11;6.12;95.88
64961;SHT31;51487;52.266;10.542;2023-04-08T06:59:36;6.12;96.00
64961;SHT31;51487;52.266;10.542;2023-04-08T07:02:02;6.13;96.15
64961;SHT31;51487;52.266;10.542;2023-04-08T07:04:27;6.15;96.34
64961;SHT31;51487;52.266;10.542;2023-04-08T07:06:53;6.15;96.61
64961;SHT31;51487;52.266;10.542;2023-04-08T07:09:18;6.30;96.05
64961;SHT31;51487;52.266;10.542;2023-04-08T07:11:43;6.46;95.85
64961;SHT31;51487;52.266;10.542;2023-04-08T07:14:09;6.41;95.21
64961;SHT31;51487;52.266;10.542;2023-04-08T07:16:34;6.41;95.26
64961;SHT31;51487;52.266;10.542;2023-04-08T07:18:59;6.39;95.44
64961;SHT31;51487;52.266;10.542;2023-04-08T07:21:26;6.50;95.25
64961;SHT31;51487;52.266;10.542;2023-04-08T07:23:51;6.56;94.67
64961;SHT31;51487;52.266;10.542;2023-04-08T07:26:17;6.70;94.36
64961;SHT31;51487;52.266;10.542;2023-04-08T07:28:42;6.67;94.45
64961;SHT31;51487;52.266;10.542;2023-04-08T07:31:15;6.73;94.28
64961;SHT31;51487;52.266;10.542;2023-04-08T07:33:41;6.76;94.33
64961;SHT31;51487;52.266;10.542;2023-04-08T07:36:11;6.91;94.11
64961;SHT31;51487;52.266;10.542;2023-04-08T07:38:39;6.77;94.04
64961;SHT31;51487;52.266;10.542;2023-04-08T07:41:05;6.66;94.09
64961;SHT31;51487;52.266;10.542;2023-04-08T07:43:31;6.47;94.60
64961;SHT31;51487;52.266;10.542;2023-04-08T07:46:00;6.51;94.91
64961;SHT31;51487;52.266;10.542;2023-04-08T07:48:33;6.32;95.28
64961;SHT31;51487;52.266;10.542;2023-04-08T07:51:05;6.41;95.39
64961;SHT31;51487;52.266;10.542;2023-04-08T07:53:31;6.49;95.36
64961;SHT31;51487;52.266;10.542;2023-04-08T07:55:57;6.58;94.62
64961;SHT31;51487;52.266;10.542;2023-04-08T07:58:23;6.63;94.70
64961;SHT31;51487;52.266;10.542;2023-04-08T08:00:50;6.56;94.66
64961;SHT31;51487;52.266;10.542;2023-04-08T08:03:15;6.64;94.50
64961;SHT31;51487;52.266;10.542;2023-04-08T08:05:41;6.66;94.77
64961;SHT31;51487;52.266;10.542;2023-04-08T08:08:06;6.73;94.44
64961;SHT31;51487;52.266;10.542;2023-04-08T08:10:32;6.46;95.19
64961;SHT31;51487;52.266;10.542;2023-04-08T08:12:58;6.47;95.29
64961;SHT31;51487;52.266;10.542;2023-04-08T08:15:23;6.50;95.21
64961;SHT31;51487;52.266;10.542;2023-04-08T08:17:49;6.49;95.36
64961;SHT31;51487;52.266;10.542;2023-04-08T08:20:15;6.60;94.92
64961;SHT31;51487;52.266;10.542;2023-04-08T08:22:40;6.68;94.58
64961;SHT31;51487;52.266;10.542;2023-04-08T08:25:06;6.74;94.22
64961;SHT31;51487;52.266;10.542;2023-04-08T08:27:34;6.87;94.04
64961;SHT31;51487;52.266;10.542;2023-04-08T08:29:59;6.95;93.57
64961;SHT31;51487;52.266;10.542;2023-04-08T08:32:24;6.94;93.67
64961;SHT31;51487;52.266;10.542;2023-04-08T08:34:50;7.08;92.90
64961;SHT31;51487;52.266;10.542;2023-04-08T08:37:15;7.05;92.88
64961;SHT31;51487;52.266;10.542;2023-04-08T08:39:41;7.09;92.95
64961;SHT31;51487;52.266;10.542;2023-04-08T08:42:06;6.95;93.05
64961;SHT31;51487;52.266;10.542;2023-04-08T08:44:31;6.97;92.85
64961;SHT31;51487;52.266;10.542;2023-04-08T08:46:57;6.98;92.83
64961;SHT31;51487;52.266;10.542;2023-04-08T08:49:22;6.97;92.86
64961;SHT31;51487;52.266;10.542;2023-04-08T08:51:49;7.01;93.10
64961;SHT31;51487;52.266;10.542;2023-04-08T08:54:15;6.87;93.00
64961;SHT31;51487;52.266;10.542;2023-04-08T08:56:41;7.05;92.57
64961;SHT31;51487;52.266;10.542;2023-04-08T08:59:08;7.01;92.05
64961;SHT31;51487;52.266;10.542;2023-04-08T09:01:38;7.05;91.89
64961;SHT31;51487;52.266;10.542;2023-04-08T09:04:15;7.08;92.44
64961;SHT31;51487;52.266;10.542;2023-04-08T09:06:43;7.20;91.74
64961;SHT31;51487;52.266;10.542;2023-04-08T09:09:09;7.29;91.41
64961;SHT31;51487;52.266;10.542;2023-04-08T09:11:38;7.35;91.18
64961;SHT31;51487;52.266;10.542;2023-04-08T09:14:07;7.28;91.53
64961;SHT31;51487;52.266;10.542;2023-04-08T09:16:42;7.20;92.72
64961;SHT31;51487;52.266;10.542;2023-04-08T09:19:09;7.26;91.99
64961;SHT31;51487;52.266;10.542;2023-04-08T09:21:35;7.19;92.59
64961;SHT31;51487;52.266;10.542;2023-04-08T09:24:01;7.30;91.98
64961;SHT31;51487;52.266;10.542;2023-04-08T09:26:26;7.47;91.24
64961;SHT31;51487;52.266;10.542;2023-04-08T09:29:00;7.40;91.55
64961;SHT31;51487;52.266;10.542;2023-04-08T09:31:28;7.38;92.20
64961;SHT31;51487;52.266;10.542;2023-04-08T09:33:56;7.45;91.60
64961;SHT31;51487;52.266;10.542;2023-04-08T09:36:22;7.40;91.31
64961;SHT31;51487;52.266;10.542;2023-04-08T09:38:48;7.46;92.03
64961;SHT31;51487;52.266;10.542;2023-04-08T09:41:17;7.26;92.68
64961;SHT31;51487;52.266;10.542;2023-04-08T09:43:44;7.47;91.46
64961;SHT31;51487;52.266;10.542;2023-04-08T09:46:14;7.52;91.44
64961;SHT31;51487;52.266;10.542;2023-04-08T09:48:46;7.65;91.34
64961;SHT31;51487;52.266;10.542;2023-04-08T09:51:15;7.62;91.46
64961;SHT31;51487;52.266;10.542;2023-04-08T09:53:45;7.73;90.83
64961;SHT31;51487;52.266;10.542;2023-04-08T09:56:11;7.76;90.32
64961;SHT31;51487;52.266;10.542;2023-04-08T09:58:41;7.73;90.37
64961;SHT31;51487;52.266;10.542;2023-04-08T10:01:13;7.77;90.38
64961;SHT31;51487;52.266;10.542;2023-04-08T10:03:39;7.70;90.30
64961;SHT31;51487;52.266;10.542;2023-04-08T10:06:09;7.60;90.83
64961;SHT31;51487;52.266;10.542;2023-04-08T10:08:36;7.62;90.76
64961;SHT31;51487;52.266;10.542;2023-04-08T10:11:01;7.50;91.34
64961;SHT31;51487;52.266;10.542;2023-04-08T10:13:27;7.53;91.77
64961;SHT31;51487;52.266;10.542;2023-04-08T10:18:43;7.47;92.23
64961;SHT31;51487;52.266;10.542;2023-04-08T10:21:39;7.55;91.75
64961;SHT31;51487;52.266;10.542;2023-04-08T10:24:10;7.55;91.82
64961;SHT31;51487;52.266;10.542;2023-04-08T10:26:43;7.65;91.50
64961;SHT31;51487;52.266;10.542;2023-04-08T10:31:44;7.67;90.95
64961;SHT31;51487;52.266;10.542;2023-04-08T10:34:21;7.65;90.87
64961;SHT31;51487;52.266;10.542;2023-04-08T10:36:48;7.47;91.97
64961;SHT31;51487;52.266;10.542;2023-04-08T10:39:15;7.45;92.48
64961;SHT31;51487;52.266;10.542;2023-04-08T10:41:44;7.42;92.52
64961;SHT31;51487;52.266;10.542;2023-04-08T10:44:21;7.33;93.26
64961;SHT31;51487;52.266;10.542;2023-04-08T10:46:48;7.40;93.08
64961;SHT31;51487;52.266;10.542;2023-04-08T10:49:14;7.52;92.81
64961;SHT31;51487;52.266;10.542;2023-04-08T10:51:41;7.69;92.31
64961;SHT31;51487;52.266;10.542;2023-04-08T10:54:09;7.67;92.52
64961;SHT31;51487;52.266;10.542;2023-04-08T10:56:51;7.76;92.53
64961;SHT31;51487;52.266;10.542;2023-04-08T10:59:28;7.69;92.48
64961;SHT31;51487;52.266;10.542;2023-04-08T11:01:53;7.69;92.10
64961;SHT31;51487;52.266;10.542;2023-04-08T11:04:19;7.70;92.07
64961;SHT31;51487;52.266;10.542;2023-04-08T11:06:47;7.47;93.37
64961;SHT31;51487;52.266;10.542;2023-04-08T11:09:13;7.69;93.46
64961;SHT31;51487;52.266;10.542;2023-04-08T11:11:44;7.97;92.02
64961;SHT31;51487;52.266;10.542;2023-04-08T11:14:10;8.11;90.92
64961;SHT31;51487;52.266;10.542;2023-04-08T11:16:37;8.11;90.61
64961;SHT31;51487;52.266;10.542;2023-04-08T11:19:03;7.86;91.39
64961;SHT31;51487;52.266;10.542;2023-04-08T11:21:34;7.91;91.14
64961;SHT31;51487;52.266;10.542;2023-04-08T11:24:00;7.97;90.57
64961;SHT31;51487;52.266;10.542;2023-04-08T11:26:30;7.87;90.67
64961;SHT31;51487;52.266;10.542;2023-04-08T11:28:56;7.95;91.47
64961;SHT31;51487;52.266;10.542;2023-04-08T11:31:22;7.88;91.49
64961;SHT31;51487;52.266;10.542;2023-04-08T11:33:48;7.88;91.82
64961;SHT31;51487;52.266;10.542;2023-04-08T11:36:17;8.04;91.57
64961;SHT31;51487;52.266;10.542;2023-04-08T11:38:43;8.04;90.64
64961;SHT31;51487;52.266;10.542;2023-04-08T11:41:09;8.08;90.91
64961;SHT31;51487;52.266;10.542;2023-04-08T11:43:35;8.15;90.20
64961;SHT31;51487;52.266;10.542;2023-04-08T11:46:19;8.09;89.90
64961;SHT31;51487;52.266;10.542;2023-04-08T11:48:58;8.26;90.16
64961;SHT31;51487;52.266;10.542;2023-04-08T11:51:24;8.41;89.73
64961;SHT31;51487;52.266;10.542;2023-04-08T11:53:50;8.45;89.14
64961;SHT31;51487;52.266;10.542;2023-04-08T11:56:20;8.77;88.31
64961;SHT31;51487;52.266;10.542;2023-04-08T11:58:48;8.73;88.37
64961;SHT31;51487;52.266;10.542;2023-04-08T12:01:13;8.69;88.62
64961;SHT31;51487;52.266;10.542;2023-04-08T12:03:51;8.70;89.14
64961;SHT31;51487;52.266;10.542;2023-04-08T12:06:17;8.72;87.66
64961;SHT31;51487;52.266;10.542;2023-04-08T12:08:42;8.53;88.72
64961;SHT31;51487;52.266;10.542;2023-04-08T12:11:08;8.49;88.26
64961;SHT31;51487;52.266;10.542;2023-04-08T12:13:34;8.76;88.12
64961;SHT31;51487;52.266;10.542;2023-04-08T12:15:59;8.75;87.42
64961;SHT31;51487;52.266;10.542;2023-04-08T12:18:25;8.86;87.35
64961;SHT31;51487;52.266;10.542;2023-04-08T12:20:50;8.63;88.73
64961;SHT31;51487;52.266;10.542;2023-04-08T12:23:16;8.97;87.26
64961;SHT31;51487;52.266;10.542;2023-04-08T12:25:41;9.21;86.95
64961;SHT31;51487;52.266;10.542;2023-04-08T12:28:07;9.07;87.16
64961;SHT31;51487;52.266;10.542;2023-04-08T12:30:34;9.03;86.59
64961;SHT31;51487;52.266;10.542;2023-04-08T12:32:59;8.59;89.02
64961;SHT31;51487;52.266;10.542;2023-04-08T12:35:24;8.39;89.42
64961;SHT31;51487;52.266;10.542;2023-04-08T12:37:50;8.56;88.32
64961;SHT31;51487;52.266;10.542;2023-04-08T12:40:15;8.52;88.63
64961;SHT31;51487;52.266;10.542;2023-04-08T12:42:43;8.29;90.23
64961;SHT31;51487;52.266;10.542;2023-04-08T12:45:08;8.42;90.03
64961;SHT31;51487;52.266;10.542;2023-04-08T12:47:34;8.62;88.92
64961;SHT31;51487;52.266;10.542;2023-04-08T12:49:59;8.83;88.22
64961;SHT31;51487;52.266;10.542;2023-04-08T12:52:25;8.84;88.40
64961;SHT31;51487;52.266;10.542;2023-04-08T12:54:50;8.69;88.35
64961;SHT31;51487;52.266;10.542;2023-04-08T12:57:15;8.76;88.03
64961;SHT31;51487;52.266;10.542;2023-04-08T12:59:41;8.53;88.90
64961;SHT31;51487;52.266;10.542;2023-04-08T13:02:06;8.28;89.87
64961;SHT31;51487;52.266;10.542;2023-04-08T13:04:32;8.32;89.30
64961;SHT31;51487;52.266;10.542;2023-04-08T13:06:57;8.44;89.27
64961;SHT31;51487;52.266;10.542;2023-04-08T13:09:23;8.57;88.89
64961;SHT31;51487;52.266;10.542;2023-04-08T13:11:49;8.70;89.08
64961;SHT31;51487;52.266;10.542;2023-04-08T13:14:14;8.56;88.87
64961;SHT31;51487;52.266;10.542;2023-04-08T13:16:40;8.56;89.24
64961;SHT31;51487;52.266;10.542;2023-04-08T13:19:05;8.31;89.90
64961;SHT31;51487;52.266;10.542;2023-04-08T13:21:31;8.62;89.20
64961;SHT31;51487;52.266;10.542;2023-04-08T13:23:56;8.62;88.88
64961;SHT31;51487;52.266;10.542;2023-04-08T13:26:22;8.62;88.73
64961;SHT31;51487;52.266;10.542;2023-04-08T13:28:47;8.69;88.53
64961;SHT31;51487;52.266;10.542;2023-04-08T13:31:13;8.70;87.85
64961;SHT31;51487;52.266;10.542;2023-04-08T13:33:38;8.62;88.42
64961;SHT31;51487;52.266;10.542;2023-04-08T13:36:04;8.73;88.76
64961;SHT31;51487;52.266;10.542;2023-04-08T13:38:29;8.91;88.11
64961;SHT31;51487;52.266;10.542;2023-04-08T13:40:54;8.90;87.78
64961;SHT31;51487;52.266;10.542;2023-04-08T13:43:20;8.83;88.16
64961;SHT31;51487;52.266;10.542;2023-04-08T13:45:46;8.88;87.90
64961;SHT31;51487;52.266;10.542;2023-04-08T13:48:12;8.99;87.92
64961;SHT31;51487;52.266;10.542;2023-04-08T13:50:37;8.91;87.59
64961;SHT31;51487;52.266;10.542;2023-04-08T13:53:04;8.88;87.57
64961;SHT31;51487;52.266;10.542;2023-04-08T13:55:29;9.00;87.70
64961;SHT31;51487;52.266;10.542;2023-04-08T13:57:55;8.83;87.83
64961;SHT31;51487;52.266;10.542;2023-04-08T14:00:21;8.73;88.20
64961;SHT31;51487;52.266;10.542;2023-04-08T14:02:46;8.81;88.09
64961;SHT31;51487;52.266;10.542;2023-04-08T14:05:12;8.84;87.90
64961;SHT31;51487;52.266;10.542;2023-04-08T14:07:37;8.81;87.90
64961;SHT31;51487;52.266;10.542;2023-04-08T14:10:02;8.79;88.07
64961;SHT31;51487;52.266;10.542;2023-04-08T14:12:28;8.83;88.11
64961;SHT31;51487;52.266;10.542;2023-04-08T14:14:53;8.87;87.98
64961;SHT31;51487;52.266;10.542;2023-04-08T14:17:19;8.73;87.93
64961;SHT31;51487;52.266;10.542;2023-04-08T14:19:44;8.79;88.47
64961;SHT31;51487;52.266;10.542;2023-04-08T14:22:10;8.79;87.82
64961;SHT31;51487;52.266;10.542;2023-04-08T14:24:36;8.66;88.06
64961;SHT31;51487;52.266;10.542;2023-04-08T14:27:01;8.75;88.09
64961;SHT31;51487;52.266;10.542;2023-04-08T14:29:27;8.66;88.40
64961;SHT31;51487;52.266;10.542;2023-04-08T14:31:53;8.73;88.12
64961;SHT31;51487;52.266;10.542;2023-04-08T14:34:18;8.81;87.95
64961;SHT31;51487;52.266;10.542;2023-04-08T14:36:43;8.75;87.18
64961;SHT31;51487;52.266;10.542;2023-04-08T14:39:09;8.75;87.66
64961;SHT31;51487;52.266;10.542;2023-04-08T14:41:36;8.81;86.74
64961;SHT31;51487;52.266;10.542;2023-04-08T14:44:01;8.72;87.27
64961;SHT31;51487;52.266;10.542;2023-04-08T14:46:28;8.70;86.58
64961;SHT31;51487;52.266;10.542;2023-04-08T14:48:54;8.62;87.40
64961;SHT31;51487;52.266;10.542;2023-04-08T14:51:19;8.77;86.62
64961;SHT31;51487;52.266;10.542;2023-04-08T14:53:44;8.67;86.49
64961;SHT31;51487;52.266;10.542;2023-04-08T14:56:10;8.59;87.48
64961;SHT31;51487;52.266;10.542;2023-04-08T14:58:36;8.73;86.94
64961;SHT31;51487;52.266;10.542;2023-04-08T15:01:01;8.67;87.18
64961;SHT31;51487;52.266;10.542;2023-04-08T15:03:27;8.63;87.77
64961;SHT31;51487;52.266;10.542;2023-04-08T15:05:52;8.65;87.37
64961;SHT31;51487;52.266;10.542;2023-04-08T15:08:20;8.76;87.25
64961;SHT31;51487;52.266;10.542;2023-04-08T15:10:45;8.81;85.92
64961;SHT31;51487;52.266;10.542;2023-04-08T15:13:10;8.76;86.42
64961;SHT31;51487;52.266;10.542;2023-04-08T15:15:36;8.77;86.36
64961;SHT31;51487;52.266;10.542;2023-04-08T15:18:01;8.83;86.08
64961;SHT31;51487;52.266;10.542;2023-04-08T15:20:26;8.80;85.89
64961;SHT31;51487;52.266;10.542;2023-04-08T15:22:52;8.83;86.31
64961;SHT31;51487;52.266;10.542;2023-04-08T15:25:18;8.77;85.87
64961;SHT31;51487;52.266;10.542;2023-04-08T15:27:43;8.84;85.12
64961;SHT31;51487;52.266;10.542;2023-04-08T15:30:09;8.88;85.02
64961;SHT31;51487;52.266;10.542;2023-04-08T15:32:34;8.88;85.06